Time;durP1;ratioP1;P1;durP2;ratioP2;P2;SDS_P1;SDS_P2;PMS_P1;PMS_P2;Temp;Humidity;BMP_temperature;BMP_pressure;BME280_temperature;BME280_humidity;BME280_pressure;Samples;Min_cycle;Max_cycle;Signal;HPM_P1;HPM_P2
2021/04/19 00:01:35;;;;;;;44.25;11.35;;;;;;;;;;5090533;28;20032;-77
2021/04/19 00:04:01;;;;;;;37.92;10.95;;;;;;;;;;5089785;28;20023;-76
2021/04/19 00:06:27;;;;;;;34.58;9.35;;;;;;;;;;5092030;28;20023;-77
2021/04/19 00:08:53;;;;;;;40.42;10.75;;;;;;;;;;5088319;28;20027;-77
2021/04/19 00:11:20;;;;;;;40.83;12.27;;;;;;;;;;5091037;28;20024;-77
2021/04/19 00:13:46;;;;;;;30.25;11.25;;;;;;;;;;5090104;28;20081;-77
2021/04/19 00:16:12;;;;;;;28.90;10.65;;;;;;;;;;5090994;28;20597;-77
2021/04/19 00:18:38;;;;;;;39.00;11.55;;;;;;;;;;5088139;28;20470;-78
2021/04/19 00:21:05;;;;;;;34.17;10.98;;;;;;;;;;5084830;28;20475;-77
2021/04/19 00:23:31;;;;;;;35.80;11.57;;;;;;;;;;5089324;28;20401;-77
2021/04/19 00:25:57;;;;;;;48.67;13.43;;;;;;;;;;5090525;28;20514;-77
2021/04/19 00:28:23;;;;;;;45.40;13.60;;;;;;;;;;5082563;28;20047;-78
2021/04/19 00:30:49;;;;;;;43.00;12.98;;;;;;;;;;5089373;28;20051;-76
2021/04/19 00:33:15;;;;;;;39.80;13.07;;;;;;;;;;5089908;28;20020;-77
2021/04/19 00:35:41;;;;;;;37.67;13.98;;;;;;;;;;5089018;28;20073;-78
2021/04/19 00:38:07;;;;;;;40.88;14.55;;;;;;;;;;5085378;28;20036;-78
2021/04/19 00:40:33;;;;;;;48.00;15.45;;;;;;;;;;5085764;28;20024;-79
2021/04/19 00:42:59;;;;;;;45.45;16.75;;;;;;;;;;5082880;28;20020;-77
2021/04/19 00:45:25;;;;;;;46.30;15.18;;;;;;;;;;5084337;28;20108;-78
2021/04/19 00:47:52;;;;;;;45.35;14.88;;;;;;;;;;5089791;28;20028;-77
2021/04/19 00:50:19;;;;;;;38.65;14.73;;;;;;;;;;5084336;28;20031;-77
2021/04/19 00:52:45;;;;;;;40.22;15.00;;;;;;;;;;5081992;28;20052;-76
2021/04/19 00:55:13;;;;;;;57.80;15.85;;;;;;;;;;5079036;28;20035;-77
2021/04/19 00:57:39;;;;;;;41.75;14.38;;;;;;;;;;5075099;28;20464;-77
2021/04/19 01:00:11;;;;;;;51.40;15.32;;;;;;;;;;5088513;28;20153;-78
2021/04/19 01:02:40;;;;;;;51.05;15.60;;;;;;;;;;5091112;28;20089;-78
2021/04/19 01:05:11;;;;;;;42.38;15.63;;;;;;;;;;5089212;28;20034;-78
2021/04/19 01:07:37;;;;;;;46.95;15.90;;;;;;;;;;5089282;28;20050;-76
2021/04/19 01:10:03;;;;;;;42.10;16.63;;;;;;;;;;5088064;28;20043;-76
2021/04/19 01:12:29;;;;;;;45.22;15.70;;;;;;;;;;5090624;28;20044;-77
2021/04/19 01:14:56;;;;;;;43.47;15.20;;;;;;;;;;5090816;28;20024;-78
2021/04/19 01:17:22;;;;;;;39.63;15.57;;;;;;;;;;5090061;28;20024;-77
2021/04/19 01:19:48;;;;;;;43.20;17.63;;;;;;;;;;5089420;28;20418;-77
2021/04/19 01:22:14;;;;;;;40.00;16.13;;;;;;;;;;5086615;28;20050;-77
2021/04/19 01:24:40;;;;;;;46.17;17.40;;;;;;;;;;5090099;28;20028;-78
2021/04/19 01:27:07;;;;;;;44.83;16.80;;;;;;;;;;5090798;28;20031;-77
2021/04/19 01:29:33;;;;;;;52.75;18.00;;;;;;;;;;5086650;28;20497;-78
2021/04/19 01:32:00;;;;;;;56.78;18.25;;;;;;;;;;5088631;28;20143;-77
2021/04/19 01:34:26;;;;;;;41.05;17.92;;;;;;;;;;5087488;28;20075;-76
2021/04/19 01:36:52;;;;;;;47.83;19.15;;;;;;;;;;5086250;28;20028;-77
2021/04/19 01:39:18;;;;;;;48.97;19.45;;;;;;;;;;5088087;28;20035;-77
2021/04/19 01:41:45;;;;;;;45.50;18.77;;;;;;;;;;5090284;28;20080;-77
2021/04/19 01:44:11;;;;;;;52.60;19.35;;;;;;;;;;5089950;28;20027;-77
2021/04/19 01:46:37;;;;;;;55.92;19.83;;;;;;;;;;5088764;28;20389;-77
2021/04/19 01:49:11;;;;;;;47.67;19.05;;;;;;;;;;5088639;28;20024;-77
2021/04/19 01:51:37;;;;;;;53.25;20.50;;;;;;;;;;5089672;28;20105;-76
2021/04/19 01:54:03;;;;;;;48.25;20.38;;;;;;;;;;5085040;28;20032;-77
2021/04/19 01:56:29;;;;;;;49.78;20.88;;;;;;;;;;5078976;28;20012;-76
2021/04/19 01:58:56;;;;;;;45.80;18.20;;;;;;;;;;5085395;28;20498;-75
2021/04/19 02:01:22;;;;;;;52.72;20.80;;;;;;;;;;5088272;28;20016;-76
2021/04/19 02:03:51;;;;;;;54.55;20.55;;;;;;;;;;5078498;28;20031;-76
2021/04/19 02:06:29;;;;;;;48.20;19.20;;;;;;;;;;5089317;28;20510;-77
2021/04/19 02:08:55;;;;;;;44.10;19.50;;;;;;;;;;5086290;28;20123;-78
2021/04/19 02:11:33;;;;;;;61.20;22.65;;;;;;;;;;5087752;28;20036;-76
2021/04/19 02:14:05;;;;;;;45.47;21.27;;;;;;;;;;5085989;28;20035;-76
2021/04/19 02:16:39;;;;;;;51.88;20.55;;;;;;;;;;5090165;28;20016;-76
2021/04/19 02:19:14;;;;;;;54.60;20.85;;;;;;;;;;5092301;28;20060;-75
2021/04/19 02:21:51;;;;;;;51.25;21.98;;;;;;;;;;5083181;28;20582;-75
2021/04/19 02:24:23;;;;;;;51.58;22.38;;;;;;;;;;5079906;28;20025;-76
2021/04/19 02:26:54;;;;;;;50.75;22.30;;;;;;;;;;5083026;28;20026;-76
2021/04/19 02:29:22;;;;;;;57.15;23.50;;;;;;;;;;5088002;28;20103;-76
2021/04/19 02:32:11;;;;;;;62.42;25.92;;;;;;;;;;5081465;28;20524;-76
2021/04/19 02:34:38;;;;;;;63.08;25.77;;;;;;;;;;5075201;28;20051;-77
2021/04/19 02:37:05;;;;;;;63.80;28.52;;;;;;;;;;5084261;28;20024;-75
2021/04/19 02:39:33;;;;;;;68.22;27.15;;;;;;;;;;5087007;28;20029;-75
2021/04/19 02:42:00;;;;;;;64.40;27.67;;;;;;;;;;5083456;28;20065;-76
2021/04/19 02:44:27;;;;;;;64.22;27.92;;;;;;;;;;5080793;28;20031;-76
2021/04/19 02:46:53;;;;;;;73.25;28.65;;;;;;;;;;5084729;28;20052;-76
2021/04/19 02:49:30;;;;;;;53.60;27.10;;;;;;;;;;5076305;28;20089;-76
2021/04/19 02:51:57;;;;;;;60.47;26.35;;;;;;;;;;5089117;28;20064;-77
2021/04/19 02:54:24;;;;;;;68.15;29.52;;;;;;;;;;5076218;28;20039;-77
2021/04/19 02:56:51;;;;;;;57.95;27.60;;;;;;;;;;5087521;28;20035;-75
2021/04/19 02:59:18;;;;;;;61.78;27.05;;;;;;;;;;5084196;28;20093;-77
2021/04/19 03:01:47;;;;;;;64.25;28.50;;;;;;;;;;5087921;28;20513;-76
2021/04/19 03:04:15;;;;;;;66.28;28.83;;;;;;;;;;5085851;28;20029;-76
2021/04/19 03:06:44;;;;;;;60.70;27.70;;;;;;;;;;5088404;28;20315;-76
2021/04/19 03:09:10;;;;;;;65.53;27.35;;;;;;;;;;5090562;28;20032;-76
2021/04/19 03:11:41;;;;;;;59.67;28.67;;;;;;;;;;5077958;28;20173;-76
2021/04/19 03:14:07;;;;;;;65.90;28.33;;;;;;;;;;5084208;28;20043;-76
2021/04/19 03:16:34;;;;;;;59.35;27.52;;;;;;;;;;5091615;28;20028;-75
2021/04/19 03:19:03;;;;;;;58.05;26.02;;;;;;;;;;5098111;28;20344;-76
2021/04/19 03:21:30;;;;;;;63.70;27.40;;;;;;;;;;5093436;28;20020;-76
2021/04/19 03:23:59;;;;;;;70.72;28.70;;;;;;;;;;5091911;28;20099;-76
2021/04/19 03:26:28;;;;;;;65.78;28.30;;;;;;;;;;5089409;28;20024;-75
2021/04/19 03:28:55;;;;;;;58.70;27.17;;;;;;;;;;5081332;28;20032;-77
2021/04/19 03:31:26;;;;;;;69.75;28.77;;;;;;;;;;5088382;28;20054;-76
2021/04/19 03:33:53;;;;;;;61.53;28.45;;;;;;;;;;5090310;28;20020;-75
2021/04/19 03:36:20;;;;;;;65.95;27.38;;;;;;;;;;5091483;28;20525;-75
2021/04/19 03:38:47;;;;;;;63.45;28.98;;;;;;;;;;5094385;28;20066;-75
2021/04/19 03:41:15;;;;;;;61.92;28.90;;;;;;;;;;5088099;28;20024;-75
2021/04/19 03:43:43;;;;;;;64.95;27.67;;;;;;;;;;5091441;28;20051;-75
2021/04/19 03:46:10;;;;;;;61.45;27.77;;;;;;;;;;5085662;28;20029;-76
2021/04/19 03:48:40;;;;;;;76.63;31.27;;;;;;;;;;5088914;28;20047;-76
2021/04/19 03:51:08;;;;;;;56.78;27.73;;;;;;;;;;5088000;28;20028;-76
2021/04/19 03:53:34;;;;;;;55.42;25.55;;;;;;;;;;5086064;28;20024;-77
2021/04/19 03:56:01;;;;;;;70.85;29.13;;;;;;;;;;5091410;28;20426;-75
2021/04/19 03:58:29;;;;;;;64.00;26.77;;;;;;;;;;5092806;28;20035;-76
2021/04/19 04:00:56;;;;;;;61.78;28.02;;;;;;;;;;5079499;28;20486;-75
2021/04/19 04:03:22;;;;;;;67.93;29.73;;;;;;;;;;5091540;28;20103;-76
2021/04/19 04:05:49;;;;;;;60.35;27.83;;;;;;;;;;5086848;28;20027;-75
2021/04/19 04:08:16;;;;;;;76.93;28.65;;;;;;;;;;5091123;28;20024;-75
2021/04/19 04:10:42;;;;;;;64.65;29.92;;;;;;;;;;5090003;28;20026;-75
2021/04/19 04:13:08;;;;;;;58.60;27.98;;;;;;;;;;5082277;28;20028;-76
2021/04/19 04:15:34;;;;;;;66.65;27.10;;;;;;;;;;5087517;28;20016;-76
2021/04/19 04:18:00;;;;;;;63.47;28.42;;;;;;;;;;5085731;28;20043;-75
2021/04/19 04:20:27;;;;;;;74.43;29.52;;;;;;;;;;5093329;28;20524;-75
2021/04/19 04:22:53;;;;;;;66.60;29.00;;;;;;;;;;5083899;28;20028;-75
2021/04/19 04:25:19;;;;;;;60.17;28.88;;;;;;;;;;5088909;28;20501;-75
2021/04/19 04:27:45;;;;;;;69.05;28.25;;;;;;;;;;5091169;28;20478;-76
2021/04/19 04:30:12;;;;;;;66.13;26.55;;;;;;;;;;5084872;28;20027;-76
2021/04/19 04:32:38;;;;;;;67.03;29.40;;;;;;;;;;5089299;28;20035;-76
2021/04/19 04:35:05;;;;;;;67.30;30.10;;;;;;;;;;5087734;28;20031;-75
2021/04/19 04:37:31;;;;;;;73.50;30.73;;;;;;;;;;5087636;28;20070;-76
2021/04/19 04:39:57;;;;;;;65.10;29.25;;;;;;;;;;5085105;28;20086;-75
2021/04/19 04:42:23;;;;;;;71.25;29.52;;;;;;;;;;5090194;28;20028;-75
2021/04/19 04:44:49;;;;;;;70.40;30.40;;;;;;;;;;5084360;28;20103;-76
2021/04/19 04:47:31;;;;;;;68.20;31.00;;;;;;;;;;5089566;28;20028;-76
2021/04/19 04:50:03;;;;;;;63.78;29.90;;;;;;;;;;5087356;28;20031;-76
2021/04/19 04:52:36;;;;;;;71.60;30.77;;;;;;;;;;5089005;28;20024;-75
2021/04/19 04:55:04;;;;;;;80.03;31.17;;;;;;;;;;5091188;28;20043;-75
2021/04/19 04:57:30;;;;;;;71.60;30.00;;;;;;;;;;5076667;28;20028;-75
2021/04/19 04:59:56;;;;;;;76.25;29.88;;;;;;;;;;5088266;28;20028;-75
2021/04/19 05:02:23;;;;;;;64.97;30.80;;;;;;;;;;5087524;28;20043;-76
2021/04/19 05:04:53;;;;;;;69.47;29.75;;;;;;;;;;5088147;28;20020;-76
2021/04/19 05:07:20;;;;;;;64.40;29.75;;;;;;;;;;5089466;28;20020;-76
2021/04/19 05:09:48;;;;;;;64.30;30.67;;;;;;;;;;5079077;28;20035;-75
2021/04/19 05:12:14;;;;;;;65.55;32.50;;;;;;;;;;5077587;28;20322;-75
2021/04/19 05:14:41;;;;;;;64.38;27.83;;;;;;;;;;5090263;28;20110;-76
2021/04/19 05:17:08;;;;;;;64.95;27.25;;;;;;;;;;5089211;28;20036;-76
2021/04/19 05:19:34;;;;;;;59.33;28.00;;;;;;;;;;5089413;28;20039;-75
2021/04/19 05:22:02;;;;;;;62.35;27.20;;;;;;;;;;5089946;28;20031;-75
2021/04/19 05:24:28;;;;;;;64.95;28.52;;;;;;;;;;5086569;28;20287;-75
2021/04/19 05:26:54;;;;;;;65.65;26.83;;;;;;;;;;5086731;28;20016;-75
2021/04/19 05:29:20;;;;;;;59.70;26.70;;;;;;;;;;5080008;28;20072;-76
2021/04/19 05:31:46;;;;;;;63.92;26.88;;;;;;;;;;5084372;28;20442;-76
2021/04/19 05:34:13;;;;;;;58.45;27.33;;;;;;;;;;5088775;28;20020;-75
2021/04/19 05:36:39;;;;;;;56.40;26.02;;;;;;;;;;5082360;28;20127;-76
2021/04/19 05:39:05;;;;;;;62.47;26.90;;;;;;;;;;5091594;28;20056;-76
2021/04/19 05:41:32;;;;;;;60.08;28.60;;;;;;;;;;5087956;28;20023;-76
2021/04/19 05:43:58;;;;;;;57.15;26.55;;;;;;;;;;5087899;28;20036;-76
2021/04/19 05:46:24;;;;;;;71.43;26.38;;;;;;;;;;5082857;28;20093;-75
2021/04/19 05:48:50;;;;;;;59.03;26.20;;;;;;;;;;5086912;28;20028;-76
2021/04/19 05:51:22;;;;;;;62.42;25.83;;;;;;;;;;5085951;28;20498;-76
2021/04/19 05:53:53;;;;;;;60.28;24.65;;;;;;;;;;5087342;28;20505;-75
2021/04/19 05:56:26;;;;;;;57.53;25.55;;;;;;;;;;5081436;28;20088;-75
2021/04/19 05:59:11;;;;;;;65.47;26.13;;;;;;;;;;5083158;28;20020;-76
2021/04/19 06:01:40;;;;;;;56.45;22.40;;;;;;;;;;5086273;28;20028;-75
2021/04/19 06:04:16;;;;;;;53.38;23.70;;;;;;;;;;5086395;28;20016;-74
2021/04/19 06:07:04;;;;;;;50.10;22.65;;;;;;;;;;5083861;28;20498;-75
2021/04/19 06:09:37;;;;;;;48.38;21.52;;;;;;;;;;5079831;28;20512;-76
2021/04/19 06:12:06;;;;;;;50.70;21.05;;;;;;;;;;5087256;28;20020;-75
2021/04/19 06:14:34;;;;;;;55.33;21.27;;;;;;;;;;5087416;28;20587;-75
2021/04/19 06:17:02;;;;;;;49.38;20.73;;;;;;;;;;5088485;28;20028;-75
2021/04/19 06:19:28;;;;;;;55.42;21.98;;;;;;;;;;5072300;28;20248;-75
2021/04/19 06:21:54;;;;;;;51.22;20.25;;;;;;;;;;5079492;28;20085;-75
2021/04/19 06:24:21;;;;;;;46.50;19.73;;;;;;;;;;5080598;28;20052;-75
2021/04/19 06:26:47;;;;;;;52.85;19.98;;;;;;;;;;5075175;28;20027;-75
2021/04/19 06:29:14;;;;;;;44.28;17.77;;;;;;;;;;5077280;28;20091;-75
2021/04/19 06:31:46;;;;;;;43.63;18.00;;;;;;;;;;5080200;28;20520;-75
2021/04/19 06:34:12;;;;;;;52.40;17.95;;;;;;;;;;5079141;28;20020;-75
2021/04/19 06:36:40;;;;;;;43.67;18.48;;;;;;;;;;5077334;28;20375;-75
2021/04/19 06:39:06;;;;;;;44.72;18.13;;;;;;;;;;5076459;28;20272;-75
2021/04/19 06:41:33;;;;;;;35.50;15.45;;;;;;;;;;5082142;28;20024;-77
2021/04/19 06:43:59;;;;;;;42.63;16.25;;;;;;;;;;5084290;28;20099;-76
2021/04/19 06:46:33;;;;;;;43.67;16.15;;;;;;;;;;5083179;28;20178;-74
2021/04/19 06:48:59;;;;;;;36.67;16.90;;;;;;;;;;5081930;28;20020;-75
2021/04/19 06:51:26;;;;;;;43.90;17.98;;;;;;;;;;5081719;28;20028;-75
2021/04/19 06:53:55;;;;;;;38.85;16.77;;;;;;;;;;5084166;28;20033;-74
2021/04/19 06:56:25;;;;;;;42.33;15.43;;;;;;;;;;5082545;28;20552;-75
2021/04/19 06:58:52;;;;;;;35.70;15.23;;;;;;;;;;5085571;28;20059;-75
2021/04/19 07:01:19;;;;;;;37.88;16.33;;;;;;;;;;5080726;28;20016;-75
2021/04/19 07:03:48;;;;;;;39.42;15.43;;;;;;;;;;5089570;28;20558;-76
2021/04/19 07:06:15;;;;;;;45.88;17.10;;;;;;;;;;5079619;28;20024;-75
2021/04/19 07:08:47;;;;;;;38.80;15.23;;;;;;;;;;5085194;28;20115;-75
2021/04/19 07:11:14;;;;;;;34.30;15.02;;;;;;;;;;5087443;28;20382;-75
2021/04/19 07:13:40;;;;;;;42.58;14.40;;;;;;;;;;5084893;28;20119;-75
2021/04/19 07:16:06;;;;;;;40.40;17.52;;;;;;;;;;5092281;28;20110;-75
2021/04/19 07:18:35;;;;;;;32.08;14.68;;;;;;;;;;5088506;28;20047;-76
2021/04/19 07:21:01;;;;;;;35.97;14.15;;;;;;;;;;5089437;28;20107;-75
2021/04/19 07:23:27;;;;;;;41.30;18.08;;;;;;;;;;5080258;28;20012;-77
2021/04/19 07:25:53;;;;;;;36.20;14.65;;;;;;;;;;5088485;28;20077;-77
2021/04/19 07:28:19;;;;;;;36.97;14.15;;;;;;;;;;5085781;28;20084;-75
2021/04/19 07:30:45;;;;;;;33.33;12.15;;;;;;;;;;5080297;28;20047;-74
2021/04/19 07:33:24;;;;;;;29.98;14.25;;;;;;;;;;5088905;28;20068;-75
2021/04/19 07:35:51;;;;;;;29.45;13.20;;;;;;;;;;5089618;28;20135;-75
2021/04/19 07:38:29;;;;;;;30.15;14.43;;;;;;;;;;5080330;28;20027;-75
2021/04/19 07:40:55;;;;;;;43.75;13.18;;;;;;;;;;5079694;28;20016;-75
2021/04/19 07:43:24;;;;;;;34.88;12.93;;;;;;;;;;5084272;28;20016;-76
2021/04/19 07:46:01;;;;;;;34.42;13.75;;;;;;;;;;5081197;28;20486;-75
2021/04/19 07:48:46;;;;;;;37.00;14.45;;;;;;;;;;5084787;28;20401;-76
2021/04/19 07:51:26;;;;;;;35.47;13.48;;;;;;;;;;5079680;28;20832;-75
2021/04/19 07:54:12;;;;;;;33.28;13.73;;;;;;;;;;5084686;28;20170;-74
2021/04/19 07:56:38;;;;;;;29.20;13.25;;;;;;;;;;5086974;28;20024;-75
2021/04/19 07:59:20;;;;;;;32.30;13.32;;;;;;;;;;5080455;28;20324;-74
2021/04/19 08:01:56;;;;;;;35.22;14.77;;;;;;;;;;5080209;28;20123;-75
2021/04/19 08:04:22;;;;;;;34.17;14.15;;;;;;;;;;5084889;28;20023;-74
2021/04/19 08:06:48;;;;;;;37.65;13.20;;;;;;;;;;5080454;28;20244;-74
2021/04/19 08:09:14;;;;;;;29.30;12.57;;;;;;;;;;5076886;28;20021;-73
2021/04/19 08:11:43;;;;;;;32.80;12.80;;;;;;;;;;5081409;28;20024;-75
2021/04/19 08:14:09;;;;;;;29.85;12.02;;;;;;;;;;5084685;28;20069;-74
2021/04/19 08:16:36;;;;;;;32.80;12.30;;;;;;;;;;5078944;28;20028;-74
2021/04/19 08:19:05;;;;;;;31.55;13.48;;;;;;;;;;5084172;28;20591;-74
2021/04/19 08:21:32;;;;;;;32.15;12.40;;;;;;;;;;5084597;28;20032;-73
2021/04/19 08:24:24;;;;;;;26.92;12.02;;;;;;;;;;5084015;28;20031;-74
2021/04/19 08:26:54;;;;;;;35.00;12.90;;;;;;;;;;5081631;28;20052;-74
2021/04/19 08:29:39;;;;;;;28.02;13.00;;;;;;;;;;5082647;28;20532;-74
2021/04/19 08:32:06;;;;;;;25.70;11.10;;;;;;;;;;5083497;28;20012;-75
2021/04/19 08:34:35;;;;;;;25.48;10.38;;;;;;;;;;5084073;28;20501;-74
2021/04/19 08:37:01;;;;;;;33.40;11.68;;;;;;;;;;5086751;28;20103;-75
2021/04/19 08:39:28;;;;;;;26.77;11.00;;;;;;;;;;5080612;28;20027;-74
2021/04/19 08:41:55;;;;;;;26.10;11.30;;;;;;;;;;5084161;28;20347;-73
2021/04/19 08:44:21;;;;;;;32.17;11.60;;;;;;;;;;5084118;28;20080;-73
2021/04/19 08:46:47;;;;;;;27.88;11.05;;;;;;;;;;5087115;28;20032;-75
2021/04/19 08:49:13;;;;;;;21.58;10.48;;;;;;;;;;5079757;28;20050;-74
2021/04/19 08:51:40;;;;;;;26.75;10.93;;;;;;;;;;5084391;28;20028;-74
2021/04/19 08:54:06;;;;;;;29.92;10.70;;;;;;;;;;5083566;28;20027;-73
2021/04/19 08:56:33;;;;;;;30.35;11.02;;;;;;;;;;5085004;28;21375;-74
2021/04/19 08:59:00;;;;;;;25.73;11.63;;;;;;;;;;5079614;28;20530;-71
2021/04/19 09:01:28;;;;;;;27.45;11.27;;;;;;;;;;5079817;28;20021;-74
2021/04/19 09:04:05;;;;;;;32.63;11.82;;;;;;;;;;5078908;28;20020;-75
2021/04/19 09:06:41;;;;;;;29.05;11.60;;;;;;;;;;5079954;28;20286;-74
2021/04/19 09:09:07;;;;;;;25.90;10.27;;;;;;;;;;5078252;28;20023;-75
2021/04/19 09:11:34;;;;;;;20.50;10.32;;;;;;;;;;5082647;28;20032;-74
2021/04/19 09:14:07;;;;;;;25.00;10.70;;;;;;;;;;5089075;28;20115;-73
2021/04/19 09:16:35;;;;;;;28.75;11.63;;;;;;;;;;5085703;28;20566;-74
2021/04/19 09:19:02;;;;;;;28.10;11.05;;;;;;;;;;5085098;28;20193;-74
2021/04/19 09:21:39;;;;;;;27.83;10.80;;;;;;;;;;5093516;28;20024;-73
2021/04/19 09:24:06;;;;;;;27.52;10.27;;;;;;;;;;5091098;28;20028;-73
2021/04/19 09:26:49;;;;;;;26.45;10.73;;;;;;;;;;5082229;28;20016;-73
2021/04/19 09:29:24;;;;;;;23.50;10.40;;;;;;;;;;5089509;28;20027;-73
2021/04/19 09:31:59;;;;;;;30.73;10.15;;;;;;;;;;5083804;28;20042;-73
2021/04/19 09:34:45;;;;;;;25.23;11.05;;;;;;;;;;5081186;28;20131;-73
2021/04/19 09:37:16;;;;;;;22.95;10.27;;;;;;;;;;5085148;28;20036;-73
2021/04/19 09:40:00;;;;;;;21.98;11.15;;;;;;;;;;5082782;28;20635;-72
2021/04/19 09:42:44;;;;;;;26.88;11.77;;;;;;;;;;5081037;28;20012;-72
2021/04/19 09:45:11;;;;;;;25.60;9.68;;;;;;;;;;5090295;28;20024;-72
2021/04/19 09:48:06;;;;;;;25.55;10.90;;;;;;;;;;5088669;28;20034;-73
2021/04/19 09:50:32;;;;;;;28.15;11.13;;;;;;;;;;5062804;28;20036;-73
2021/04/19 09:52:58;;;;;;;32.78;11.45;;;;;;;;;;5083240;28;20024;-73
2021/04/19 09:55:24;;;;;;;30.13;11.73;;;;;;;;;;5085973;28;20032;-72
2021/04/19 09:57:51;;;;;;;29.40;11.38;;;;;;;;;;5083993;28;20043;-73
2021/04/19 10:00:17;;;;;;;26.30;12.23;;;;;;;;;;5078848;28;20021;-74
2021/04/19 10:02:44;;;;;;;26.50;11.68;;;;;;;;;;5082476;28;20489;-73
2021/04/19 10:05:11;;;;;;;26.83;11.82;;;;;;;;;;5074778;28;20035;-72
2021/04/19 10:07:41;;;;;;;23.65;10.52;;;;;;;;;;5085620;28;20158;-74
2021/04/19 10:10:08;;;;;;;26.02;10.35;;;;;;;;;;5083536;28;20394;-74
2021/04/19 10:12:35;;;;;;;27.83;11.10;;;;;;;;;;5083467;28;20031;-72
2021/04/19 10:15:01;;;;;;;35.92;12.38;;;;;;;;;;5085683;28;20097;-73
2021/04/19 10:17:32;;;;;;;28.60;12.35;;;;;;;;;;5080944;28;20063;-73
2021/04/19 10:20:12;;;;;;;33.92;11.77;;;;;;;;;;5089716;28;20066;-73
2021/04/19 10:22:38;;;;;;;28.52;12.75;;;;;;;;;;5087447;28;20028;-74
2021/04/19 10:25:05;;;;;;;31.20;11.27;;;;;;;;;;5084094;28;20032;-74
2021/04/19 10:27:31;;;;;;;26.13;11.52;;;;;;;;;;5087536;28;20024;-72
2021/04/19 10:30:12;;;;;;;23.45;10.90;;;;;;;;;;5085263;28;20032;-72
2021/04/19 10:32:38;;;;;;;24.92;10.20;;;;;;;;;;5081262;28;20028;-73
2021/04/19 10:35:04;;;;;;;28.77;11.23;;;;;;;;;;5080826;28;20031;-73
2021/04/19 10:37:30;;;;;;;23.83;10.43;;;;;;;;;;5088656;28;20020;-73
2021/04/19 10:39:58;;;;;;;25.50;10.90;;;;;;;;;;5080081;28;20055;-72
2021/04/19 10:42:27;;;;;;;24.67;11.38;;;;;;;;;;5080653;28;20020;-72
2021/04/19 10:44:54;;;;;;;25.38;11.20;;;;;;;;;;5087348;28;20028;-73
2021/04/19 10:47:32;;;;;;;32.53;10.38;;;;;;;;;;5083034;28;20024;-72
2021/04/19 10:49:58;;;;;;;27.52;10.85;;;;;;;;;;5080660;28;20143;-73
2021/04/19 10:52:24;;;;;;;24.45;11.15;;;;;;;;;;5085215;28;20028;-73
2021/04/19 10:54:50;;;;;;;26.58;11.50;;;;;;;;;;5078810;28;20082;-73
2021/04/19 10:57:23;;;;;;;27.00;11.30;;;;;;;;;;5082928;28;20477;-73
2021/04/19 10:59:50;;;;;;;29.25;10.35;;;;;;;;;;5083211;28;20028;-74
2021/04/19 11:02:22;;;;;;;24.63;11.93;;;;;;;;;;5082976;28;20013;-73
2021/04/19 11:04:48;;;;;;;30.98;10.48;;;;;;;;;;5086576;28;20024;-73
2021/04/19 11:07:27;;;;;;;33.55;12.48;;;;;;;;;;5079263;28;20020;-72
2021/04/19 11:10:12;;;;;;;31.58;12.63;;;;;;;;;;5079355;28;20501;-73
2021/04/19 11:12:38;;;;;;;30.38;12.48;;;;;;;;;;5085943;28;20024;-73
2021/04/19 11:15:08;;;;;;;26.75;11.02;;;;;;;;;;5079513;28;20490;-73
2021/04/19 11:17:34;;;;;;;31.77;12.05;;;;;;;;;;5078726;28;20063;-73
2021/04/19 11:20:00;;;;;;;30.77;12.05;;;;;;;;;;5086986;28;20043;-73
2021/04/19 11:22:28;;;;;;;28.27;12.13;;;;;;;;;;5087018;28;20033;-74
2021/04/19 11:24:55;;;;;;;32.30;13.07;;;;;;;;;;5092132;28;20039;-74
2021/04/19 11:27:25;;;;;;;38.63;13.85;;;;;;;;;;5086525;28;20056;-74
2021/04/19 11:29:51;;;;;;;28.30;12.75;;;;;;;;;;5088052;28;20036;-72
2021/04/19 11:32:31;;;;;;;33.58;12.77;;;;;;;;;;5086433;28;20036;-71
2021/04/19 11:34:58;;;;;;;28.98;13.70;;;;;;;;;;5092693;28;20020;-73
2021/04/19 11:37:31;;;;;;;28.00;10.95;;;;;;;;;;5089217;28;20036;-73
2021/04/19 11:39:58;;;;;;;34.67;12.38;;;;;;;;;;5089295;28;20520;-74
2021/04/19 11:42:30;;;;;;;30.30;13.40;;;;;;;;;;5092386;28;20273;-72
2021/04/19 11:44:57;;;;;;;27.85;12.70;;;;;;;;;;5093347;28;20053;-71
2021/04/19 11:47:23;;;;;;;34.20;14.07;;;;;;;;;;5088696;28;20163;-73
2021/04/19 11:49:51;;;;;;;29.42;11.82;;;;;;;;;;5083225;28;20020;-72
2021/04/19 11:52:17;;;;;;;21.58;10.35;;;;;;;;;;5086826;28;20075;-73
2021/04/19 11:54:43;;;;;;;34.55;15.00;;;;;;;;;;5091888;28;20035;-73
2021/04/19 11:57:09;;;;;;;27.35;12.82;;;;;;;;;;5088796;28;20047;-72
2021/04/19 11:59:35;;;;;;;27.10;13.35;;;;;;;;;;5081298;28;20032;-73
2021/04/19 12:02:02;;;;;;;35.22;13.75;;;;;;;;;;5077363;28;20405;-72
2021/04/19 12:04:28;;;;;;;30.30;12.40;;;;;;;;;;5083876;28;20089;-72
2021/04/19 12:06:54;;;;;;;29.98;14.45;;;;;;;;;;5088461;28;20028;-73
2021/04/19 12:09:20;;;;;;;34.83;14.38;;;;;;;;;;5088054;28;20028;-72
2021/04/19 12:11:47;;;;;;;27.70;13.43;;;;;;;;;;5089216;28;20027;-75
2021/04/19 12:14:13;;;;;;;30.55;13.20;;;;;;;;;;5090994;28;20035;-74
2021/04/19 12:16:39;;;;;;;31.75;13.90;;;;;;;;;;5087167;28;20025;-73
2021/04/19 12:19:05;;;;;;;31.00;13.13;;;;;;;;;;5087633;28;20484;-75
2021/04/19 12:21:31;;;;;;;31.63;13.27;;;;;;;;;;5089427;28;20044;-73
2021/04/19 12:23:57;;;;;;;34.35;13.82;;;;;;;;;;5089500;28;20021;-71
2021/04/19 12:26:23;;;;;;;28.60;12.85;;;;;;;;;;5087568;28;20020;-72
2021/04/19 12:28:49;;;;;;;40.85;13.95;;;;;;;;;;5087337;28;20539;-72
2021/04/19 12:31:15;;;;;;;30.23;13.27;;;;;;;;;;5090031;28;20165;-71
2021/04/19 12:33:42;;;;;;;30.08;12.68;;;;;;;;;;5088501;28;20032;-72
2021/04/19 12:36:08;;;;;;;33.63;13.07;;;;;;;;;;5083780;28;20050;-73
2021/04/19 12:38:34;;;;;;;34.53;14.35;;;;;;;;;;5087948;28;20032;-70
2021/04/19 12:41:00;;;;;;;30.48;14.05;;;;;;;;;;5086997;28;20024;-72
2021/04/19 12:43:26;;;;;;;36.45;15.63;;;;;;;;;;5087593;28;20115;-73
2021/04/19 12:45:52;;;;;;;34.80;14.38;;;;;;;;;;5084155;28;20119;-73
2021/04/19 12:48:18;;;;;;;38.78;13.70;;;;;;;;;;5083628;28;20027;-71
2021/04/19 12:50:45;;;;;;;31.38;13.00;;;;;;;;;;5086039;28;20032;-74
2021/04/19 12:53:11;;;;;;;29.70;13.25;;;;;;;;;;5088484;28;20521;-74
2021/04/19 12:55:38;;;;;;;31.85;13.98;;;;;;;;;;5089343;28;20032;-73
2021/04/19 12:58:04;;;;;;;35.08;13.85;;;;;;;;;;5088106;28;20109;-74
2021/04/19 13:00:31;;;;;;;32.75;13.70;;;;;;;;;;5085060;28;20061;-71
2021/04/19 13:02:57;;;;;;;33.00;13.60;;;;;;;;;;5089285;28;20023;-71
2021/04/19 13:05:23;;;;;;;37.35;14.88;;;;;;;;;;5086845;28;20021;-71
2021/04/19 13:07:49;;;;;;;32.30;13.80;;;;;;;;;;5090138;28;20123;-71
2021/04/19 13:10:18;;;;;;;33.08;13.43;;;;;;;;;;5084578;28;20619;-72
2021/04/19 13:12:44;;;;;;;40.17;14.77;;;;;;;;;;5089951;28;20028;-72
2021/04/19 13:15:11;;;;;;;33.85;14.13;;;;;;;;;;5083408;28;20020;-73
2021/04/19 13:17:37;;;;;;;31.90;13.45;;;;;;;;;;5088901;28;20122;-73
2021/04/19 13:20:05;;;;;;;33.85;15.88;;;;;;;;;;5088356;28;20040;-73
2021/04/19 13:22:31;;;;;;;35.63;15.32;;;;;;;;;;5090710;28;20017;-73
2021/04/19 13:24:57;;;;;;;39.15;14.82;;;;;;;;;;5087597;28;20048;-74
2021/04/19 13:27:23;;;;;;;40.05;13.85;;;;;;;;;;5083023;28;20101;-72
2021/04/19 13:29:50;;;;;;;33.58;15.18;;;;;;;;;;5080081;28;20138;-74
2021/04/19 13:32:16;;;;;;;36.03;14.57;;;;;;;;;;5084048;28;20114;-73
2021/04/19 13:34:43;;;;;;;35.08;15.48;;;;;;;;;;5081617;28;20047;-73
2021/04/19 13:37:09;;;;;;;32.53;13.82;;;;;;;;;;5088642;28;20063;-72
2021/04/19 13:39:35;;;;;;;38.33;13.95;;;;;;;;;;5085459;28;20026;-72
2021/04/19 13:42:01;;;;;;;35.92;13.93;;;;;;;;;;5087643;28;20485;-71
2021/04/19 13:44:27;;;;;;;27.17;12.90;;;;;;;;;;5078819;28;20024;-72
2021/04/19 13:46:54;;;;;;;32.08;14.10;;;;;;;;;;5077453;28;20028;-72
2021/04/19 13:49:21;;;;;;;32.47;12.82;;;;;;;;;;5084167;28;20481;-71
2021/04/19 13:51:47;;;;;;;36.83;14.43;;;;;;;;;;5088477;28;20028;-72
2021/04/19 13:54:13;;;;;;;30.35;13.50;;;;;;;;;;5076154;28;20035;-71
2021/04/19 13:56:40;;;;;;;34.88;14.15;;;;;;;;;;5085480;28;20025;-71
2021/04/19 13:59:06;;;;;;;28.17;13.43;;;;;;;;;;5085108;28;20028;-73
2021/04/19 14:01:32;;;;;;;36.45;15.55;;;;;;;;;;5085162;28;20027;-72
2021/04/19 14:03:59;;;;;;;34.63;13.10;;;;;;;;;;5082341;28;20123;-73
2021/04/19 14:06:25;;;;;;;27.50;13.13;;;;;;;;;;5082957;28;20028;-71
2021/04/19 14:08:51;;;;;;;32.53;14.57;;;;;;;;;;5087665;28;20032;-70
2021/04/19 14:11:17;;;;;;;33.00;12.57;;;;;;;;;;5086556;28;20486;-72
2021/04/19 14:13:43;;;;;;;34.38;13.77;;;;;;;;;;5089021;28;20505;-72
2021/04/19 14:16:09;;;;;;;35.80;14.18;;;;;;;;;;5097735;28;20024;-72
2021/04/19 14:18:37;;;;;;;30.17;14.63;;;;;;;;;;5085893;28;20063;-72
2021/04/19 14:21:07;;;;;;;33.90;15.07;;;;;;;;;;5083407;28;20051;-72
2021/04/19 14:23:34;;;;;;;29.00;12.48;;;;;;;;;;5082447;28;20023;-71